Data for 01/08/2016

Time Sea-Level Adjusted Pressure Absolute Pressure Temperature Relative Humidity Dew Point   
(mb) (inHg) (mb) (inHg) (C) (F) (%) (C) (F)
00:05 1016 30 845 24.95 -8.8 16.1 85 -10.9 12.4
00:10 1016 30 845 24.95 -8.8 16.1 85 -10.9 12.4
00:15 1016 30 845 24.95 -8.8 16.1 85 -11 12.3
00:20 1016 30 845 24.95 -8.8 16.1 85 -10.9 12.3
00:25 1016 30 845 24.95 -8.8 16.1 85 -10.9 12.4
00:30 1016 30 845 24.95 -8.8 16.1 85 -11 12.3
00:35 1016 30 845 24.95 -8.9 16.1 84 -11 12.1
00:40 1016 30 845 24.95 -8.9 15.9 84 -11.1 12
00:45 1016 30 845 24.95 -9 15.8 85 -11.1 11.9
00:50 1016 30 845 24.95 -9.1 15.7 84 -11.3 11.7
00:55 1016 30 845 24.95 -9.2 15.4 85 -11.3 11.7
01:00 1016 30 845 24.95 -9.2 15.4 85 -11.3 11.7
01:05 1016 30 845 24.95 -9.2 15.4 85 -11.3 11.7
01:10 1016 30 845 24.95 -9.3 15.3 85 -11.3 11.6
01:15 1016 30 845 24.95 -9.3 15.3 85 -11.3 11.6
01:20 1016 30 845 24.95 -9.3 15.2 85 -11.4 11.5
01:25 1016 30 845 24.95 -9.4 15 85 -11.4 11.4
01:30 1016 30 845 24.95 -9.4 15.1 85 -11.4 11.5
01:35 1016 30 845 24.95 -9.4 15.1 85 -11.5 11.4
01:40 1016 30 845 24.95 -9.5 15 85 -11.5 11.3
01:45 1016 30 845 24.95 -9.5 14.9 86 -11.5 11.3
01:50 1016 30 845 24.95 -9.5 14.9 86 -11.4 11.4
01:55 1016 30 845 24.95 -9.4 15 86 -11.4 11.5
02:00 1016 30 845 24.95 -9.4 15 85 -11.5 11.3
02:05 1016 30 845 24.95 -9.4 15 85 -11.5 11.2
02:10 1016 30 845 24.95 -9.4 15 85 -11.5 11.3
02:15 1016 30 845 24.95 -9.4 15 85 -11.5 11.3
02:20 1016 30 845 24.95 -9.4 15.1 85 -11.5 11.3
02:25 1016 30 845 24.95 -9.3 15.2 84 -11.5 11.3
02:30 1016 30 845 24.95 -9.3 15.2 85 -11.5 11.3
02:35 1016 30 845 24.95 -9.3 15.2 84 -11.5 11.3
02:40 1016 30 845 24.95 -9.4 15.2 84 -11.5 11.2
02:45 1016 30 845 24.95 -9.4 15 84 -11.6 11.1
02:50 1016 30 845 24.95 -9.4 15 84 -11.6 11.1
02:55 1016 30 845 24.95 -9.4 15.1 84 -11.6 11.1
03:00 1016 30 845 24.95 -9.4 15.1 84 -11.6 11.1
03:05 1016 30 845 24.95 -9.4 15 84 -11.7 11
03:10 1016 30 845 24.95 -9.4 15 84 -11.7 11
03:15 1016 30 845 24.95 -9.4 15.1 84 -11.7 11
03:20 1016 30 845 24.95 -9.5 14.9 84 -11.7 10.9
03:25 1016 30 845 24.95 -9.5 14.9 83 -11.9 10.7
03:30 1016 30 845 24.95 -9.7 14.6 84 -11.9 10.6
03:35 1016 30 845 24.95 -9.8 14.4 84 -12 10.5
03:40 1016 30 845 24.95 -9.8 14.3 84 -12 10.4
03:45 1016 30 845 24.95 -9.9 14.2 84 -12.2 10.1
03:50 1016 30 845 24.95 -9.9 14.2 84 -12.1 10.2
03:55 1016 30 845 24.95 -9.8 14.3 84 -12 10.3
04:00 1016 30 845 24.95 -9.8 14.4 84 -12 10.4
04:05 1016 30 845 24.95 -9.8 14.4 84 -12 10.4
04:10 1016 30 845 24.95 -9.9 14.3 84 -12 10.3
04:15 1016 30 845 24.95 -9.9 14.2 84 -12.1 10.2
04:20 1016 30 845 24.95 -9.9 14.1 84 -12.1 10.2
04:25 1016 30 845 24.95 -10 14.1 85 -12.1 10.2
04:30 1016 30 845 24.95 -10 13.9 85 -12.1 10.2
04:35 1016 30 845 24.95 -10.1 13.8 85 -12.1 10.1
04:40 1016 30 845 24.95 -10.2 13.7 85 -12.2 10.1
04:45 1016 30 845 24.95 -10.2 13.6 85 -12.2 10
04:50 1016 30 845 24.95 -10.2 13.7 85 -12.3 9.8
04:55 1016 30 845 24.95 -10.1 13.7 85 -12.3 9.9
05:00 1016 30 845 24.95 -10.1 13.8 84 -12.3 9.9
05:05 1016 30 845 24.95 -10.1 13.8 84 -12.4 9.8
05:10 1016 30 845 24.95 -10.1 13.8 84 -12.4 9.8
05:15 1016 30 845 24.95 -10.1 13.9 84 -12.3 9.8
05:20 1016 30 845 24.95 -10.1 13.9 84 -12.3 9.9
05:25 1016 30 845 24.95 -10.1 13.9 84 -12.3 9.9
05:30 1016 30 845 24.95 -10.1 13.8 84 -12.3 9.8
05:35 1016 30 845 24.95 -10.4 13.3 86 -12.2 10
05:40 1016 30 846 24.98 -10.4 13.3 86 -12.3 9.9
05:45 1016 30 845 24.95 -10.4 13.2 86 -12.4 9.7
05:50 1016 30 845 24.95 -10.5 13.1 85 -12.6 9.3
05:55 1016 30 845 24.95 -10.6 12.9 85 -12.7 9.1
06:00 1016 30 845 24.95 -10.8 12.7 85 -12.8 8.9
06:05 1016 30 845 24.95 -10.8 12.5 85 -12.8 8.9
06:10 1016 30 845 24.95 -10.9 12.4 85 -12.9 8.8
06:15 1016 30 845 24.95 -11 12.3 86 -12.9 8.7
06:20 1016 30 845 24.95 -11 12.2 86 -13 8.7
06:25 1016 30 845 24.95 -11.1 12.1 86 -13 8.7
06:30 1016 30 846 24.98 -11.1 12 86 -13 8.6
06:35 1016 30 846 24.98 -11.2 11.9 86 -13 8.5
06:40 1016 30 846 24.98 -11.3 11.8 87 -13 8.5
06:45 1016 30 846 24.98 -11.3 11.7 87 -13 8.5
06:50 1016 30 846 24.98 -11.3 11.8 87 -13 8.6
06:55 1016 30 846 24.98 -11.3 11.7 87 -13 8.6
07:00 1016 30 846 24.98 -11.4 11.5 88 -13.1 8.4
07:05 1016 30 846 24.98 -11.5 11.3 88 -13.1 8.3
07:10 1016 30 846 24.98 -11.5 11.4 88 -13 8.5
07:15 1017 30.03 846 24.98 -11.4 11.6 88 -13 8.6
07:20 1017 30.03 846 24.98 -11.3 11.7 88 -12.9 8.7
07:25 1017 30.03 846 24.98 -11.2 11.8 88 -12.8 8.9
07:30 1017 30.03 846 24.98 -11.1 12 88 -12.8 9
07:35 1017 30.03 846 24.98 -11.1 12.1 87 -12.8 9
07:40 1017 30.03 846 24.98 -11.1 12 87 -12.9 8.8
07:45 1017 30.03 846 24.98 -11.2 11.9 87 -12.9 8.8
07:50 1017 30.03 846 24.98 -11.2 11.9 87 -12.9 8.7
07:55 1017 30.03 846 24.98 -11.2 11.8 87 -13 8.6
08:00 1017 30.03 846 24.98 -11.3 11.6 88 -13 8.6
08:05 1017 30.03 846 24.98 -11.4 11.4 88 -13.1 8.5
08:10 1017 30.03 846 24.98 -11.5 11.3 88 -13.1 8.4
08:15 1017 30.03 846 24.98 -11.5 11.4 88 -13.1 8.5
08:20 1017 30.03 846 24.98 -11.4 11.4 88 -13.1 8.4
08:25 1017 30.03 846 24.98 -11.5 11.4 88 -13.1 8.5
08:30 1017 30.03 846 24.98 -11.4 11.5 88 -13 8.6
08:35 1017 30.03 846 24.98 -11.3 11.6 88 -12.9 8.7
08:40 1017 30.03 846 24.98 -11.3 11.7 88 -13 8.7
08:45 1017 30.03 846 24.98 -11.3 11.7 88 -13 8.7
08:50 1017 30.03 846 24.98 -11.3 11.7 87 -13 8.6
08:55 1017 30.03 846 24.98 -11.3 11.7 87 -13 8.7
09:00 1017 30.03 846 24.98 -11.3 11.8 87 -13 8.5
09:05 1017 30.03 846 24.98 -11.3 11.6 88 -13 8.6
09:10 1017 30.03 846 24.98 -11.3 11.7 87 -13 8.6
09:15 1017 30.03 846 24.98 -11.2 11.8 87 -13 8.7
09:20 1017 30.03 846 24.98 -11.3 11.7 87 -13 8.6
09:25 1017 30.03 846 24.98 -11.2 11.8 87 -12.9 8.8
09:30 1017 30.03 846 24.98 -11.1 12 87 -12.8 8.9
09:35 1017 30.03 846 24.98 -11.1 12.1 87 -12.8 9
09:40 1017 30.03 846 24.98 -11 12.1 87 -12.8 9
09:45 1017 30.03 846 24.98 -11 12.1 87 -12.8 8.9
09:50 1017 30.03 846 24.98 -11.2 11.9 87 -12.9 8.8
09:55 1017 30.03 846 24.98 -11.1 11.9 87 -12.8 8.9
10:00 1017 30.03 846 24.98 -10.9 12.3 87 -12.8 9
10:05 1017 30.03 846 24.98 -10.9 12.5 86 -12.8 9
10:10 1017 30.03 846 24.98 -10.8 12.5 86 -12.7 9.1
10:15 1017 30.03 846 24.98 -10.7 12.7 85 -12.8 9
10:20 1017 30.03 846 24.98 -10.8 12.7 85 -12.7 9.1
10:25 1017 30.03 846 24.98 -10.8 12.6 85 -12.8 8.9
10:30 1017 30.03 846 24.98 -10.8 12.6 84 -12.9 8.7
10:35 1017 30.03 846 24.98 -10.8 12.6 85 -12.8 8.9
10:40 1017 30.03 846 24.98 -10.5 13 84 -12.7 9.2
10:45 1017 30.03 846 24.98 -10.5 13.1 84 -12.7 9.1
10:50 1017 30.03 846 24.98 -10.5 13.1 85 -12.6 9.3
10:55 1017 30.03 846 24.98 -10.2 13.7 83 -12.6 9.4
11:00 1017 30.03 846 24.98 -10.1 13.8 83 -12.5 9.6
11:05 1017 30.03 846 24.98 -10 13.9 82 -12.6 9.3
11:10 1017 30.03 846 24.98 -10.2 13.7 83 -12.6 9.3
11:15 1017 30.03 846 24.98 -10 14.1 81 -12.6 9.3
11:20 1017 30.03 846 24.98 -9.8 14.3 81 -12.6 9.4
11:25 1017 30.03 846 24.98 -9.6 14.6 79 -12.6 9.4
11:30 1017 30.03 846 24.98 -9.6 14.7 80 -12.5 9.5
11:35 1017 30.03 846 24.98 -9.4 15.1 78 -12.5 9.5
11:40 1017 30.03 846 24.98 -9.2 15.5 77 -12.5 9.5
11:45 1017 30.03 846 24.98 -8.9 16 76 -12.4 9.7
11:50 1017 30.03 846 24.98 -9 15.8 76 -12.4 9.6
11:55 1017 30.03 846 24.98 -8.7 16.4 75 -12.3 9.8
12:00 1017 30.03 846 24.98 -8.5 16.6 74 -12.3 9.9
12:05 1017 30.03 846 24.98 -8.8 16.1 76 -12.3 9.9
12:10 1017 30.03 846 24.98 -8.9 16.1 76 -12.4 9.7
12:15 1017 30.03 846 24.98 -8.9 16 78 -12.1 10.3
12:20 1017 30.03 846 24.98 -8.5 16.7 75 -12.1 10.2
12:25 1017 30.03 846 24.98 -8.9 16 78 -12.1 10.3
12:30 1017 30.03 846 24.98 -9.1 15.6 79 -12.1 10.3
12:35 1017 30.03 846 24.98 -8.5 16.6 77 -11.9 10.6
12:40 1017 30.03 846 24.98 -8 17.6 76 -11.6 11.1
12:45 1017 30.03 846 24.98 -7.6 18.3 73 -11.6 11.1
12:50 1017 30.03 846 24.98 -7.4 18.7 72 -11.6 11.2
12:55 1017 30.03 846 24.98 -7.7 18.1 75 -11.4 11.6
13:00 1017 30.03 846 24.98 -7.8 17.9 74 -11.7 10.9
13:05 1017 30.03 846 24.98 -7.3 18.8 72 -11.6 11.2
13:10 1017 30.03 846 24.98 -7.1 19.2 71 -11.6 11.2
13:15 1017 30.03 846 24.98 -7.2 19.1 72 -11.5 11.3
13:20 1017 30.03 846 24.98 -7.1 19.3 71 -11.6 11.2
13:25 1017 30.03 846 24.98 -8.1 17.4 75 -11.7 10.9
13:30 1016 30 846 24.98 -8.4 17 78 -11.6 11.2
13:35 1016 30 846 24.98 -8.3 17.1 77 -11.7 11
13:40 1016 30 846 24.98 -8.3 17 77 -11.7 10.9
13:45 1016 30 846 24.98 -8.2 17.3 76 -11.7 11
13:50 1016 30 846 24.98 -8.1 17.5 76 -11.6 11.1
13:55 1016 30 845 24.95 -7.9 17.8 75 -11.5 11.2
14:00 1016 30 845 24.95 -7.5 18.5 74 -11.4 11.5
14:05 1016 30 845 24.95 -7.1 19.2 73 -11.2 11.9
14:10 1016 30 845 24.95 -7.1 19.3 72 -11.3 11.6
14:15 1016 30 846 24.98 -6.8 19.7 71 -11.3 11.7
14:20 1016 30 846 24.98 -6.8 19.8 73 -10.9 12.4
14:25 1016 30 846 24.98 -7.2 19 74 -11.2 11.9
14:30 1016 30 846 24.98 -7.3 19 73 -11.4 11.5
14:35 1016 30 846 24.98 -7.2 19.1 72 -11.4 11.5
14:40 1016 30 846 24.98 -7.1 19.1 72 -11.5 11.4
14:45 1017 30.03 846 24.98 -7.2 19.1 72 -11.4 11.6
14:50 1017 30.03 846 24.98 -7.5 18.5 73 -11.6 11.2
14:55 1017 30.03 846 24.98 -7.5 18.4 74 -11.5 11.3
15:00 1017 30.03 846 24.98 -7.4 18.6 74 -11.3 11.7
15:05 1017 30.03 846 24.98 -7.4 18.7 73 -11.5 11.3
15:10 1017 30.03 846 24.98 -7.3 18.9 73 -11.3 11.7
15:15 1017 30.03 846 24.98 -7.3 18.9 72 -11.4 11.4
15:20 1017 30.03 846 24.98 -7.2 19 72 -11.5 11.3
15:25 1016 30 846 24.98 -7.4 18.6 73 -11.5 11.2
15:30 1016 30 846 24.98 -7.8 17.9 74 -11.8 10.8
15:35 1016 30 846 24.98 -8 17.6 75 -11.7 11
15:40 1016 30 846 24.98 -7.9 17.7 73 -11.9 10.6
15:45 1017 30.03 846 24.98 -8 17.6 74 -11.9 10.6
15:50 1017 30.03 846 24.98 -7.8 17.9 73 -11.9 10.6
15:55 1017 30.03 846 24.98 -7.7 18.1 73 -11.7 10.9
16:00 1017 30.03 846 24.98 -7.4 18.7 73 -11.4 11.5
16:05 1017 30.03 846 24.98 -7.2 19 71 -11.6 11.1
16:10 1017 30.03 846 24.98 -7.5 18.5 75 -11.2 11.8
16:15 1017 30.03 846 24.98 -7.6 18.4 76 -11 12.1
16:20 1017 30.03 846 24.98 -7.8 18 77 -11.1 12.1
16:25 1017 30.03 846 24.98 -7.9 17.7 77 -11.3 11.6
16:30 1017 30.03 846 24.98 -8.2 17.3 79 -11.2 11.8
16:35 1017 30.03 846 24.98 -7.9 17.7 77 -11.3 11.6
16:40 1017 30.03 846 24.98 -7.9 17.9 78 -11 12.2
16:45 1017 30.03 846 24.98 -7.7 18.1 76 -11.2 11.9
16:50 1017 30.03 846 24.98 -7.8 18 77 -11.2 11.9
16:55 1017 30.03 846 24.98 -7.7 18.1 77 -11 12.2
17:00 1017 30.03 846 24.98 -7.7 18.2 77 -11 12.2
17:05 1017 30.03 846 24.98 -7.8 18 77 -11.2 11.9
17:10 1017 30.03 846 24.98 -7.9 17.8 78 -11.1 12
17:15 1017 30.03 846 24.98 -7.9 17.8 78 -11.1 12
17:20 1017 30.03 846 24.98 -7.8 18 78 -11.1 12.1
17:25 1017 30.03 846 24.98 -7.7 18.1 78 -11 12.2
17:30 1017 30.03 846 24.98 -7.8 18 77 -11.1 12
17:35 1017 30.03 846 24.98 -7.9 17.8 78 -11 12.2
17:40 1017 30.03 846 24.98 -7.8 17.9 78 -11 12.3
17:45 1017 30.03 846 24.98 -7.9 17.8 79 -10.9 12.4
17:50 1017 30.03 846 24.98 -7.9 17.8 79 -11 12.2
17:55 1017 30.03 846 24.98 -8 17.7 79 -11 12.3
18:00 1017 30.03 846 24.98 -8.1 17.4 80 -11 12.3
18:05 1017 30.03 846 24.98 -8.2 17.3 81 -10.9 12.3
18:10 1017 30.03 846 24.98 -8.1 17.5 80 -10.9 12.5
18:15 1017 30.03 846 24.98 -7.9 17.7 80 -10.8 12.5
18:20 1017 30.03 846 24.98 -7.9 17.7 80 -10.8 12.6
18:25 1017 30.03 846 24.98 -7.9 17.9 80 -10.7 12.7
18:30 1017 30.03 846 24.98 -7.8 18 80 -10.7 12.8
18:35 1017 30.03 846 24.98 -7.8 18.1 79 -10.7 12.7
18:40 1017 30.03 846 24.98 -7.9 17.9 79 -10.8 12.5
18:45 1017 30.03 846 24.98 -8.1 17.5 80 -10.9 12.3
18:50 1017 30.03 846 24.98 -8.1 17.4 81 -10.9 12.4
18:55 1017 30.03 846 24.98 -8.1 17.4 81 -10.8 12.5
19:00 1017 30.03 846 24.98 -8.1 17.5 80 -10.9 12.5
19:05 1017 30.03 846 24.98 -8 17.5 81 -10.8 12.6
19:10 1017 30.03 846 24.98 -8 17.5 81 -10.8 12.6
19:15 1017 30.03 846 24.98 -8.1 17.5 81 -10.8 12.5
19:20 1017 30.03 846 24.98 -8.1 17.4 80 -11 12.2
19:25 1017 30.03 846 24.98 -8.2 17.2 80 -11 12.2
19:30 1017 30.03 846 24.98 -8.2 17.2 80 -11 12.1
19:35 1017 30.03 846 24.98 -8.3 17.2 81 -11 12.1
19:40 1017 30.03 846 24.98 -8.3 17.1 81 -11 12.2
19:45 1017 30.03 846 24.98 -8.2 17.2 81 -11 12.3
19:50 1017 30.03 846 24.98 -8.2 17.2 81 -11 12.3
19:55 1017 30.03 846 24.98 -8.3 17.1 81 -11 12.2
20:00 1017 30.03 846 24.98 -8.2 17.2 80 -11.1 12.1
20:05 1017 30.03 846 24.98 -8.2 17.2 81 -11 12.2
20:10 1017 30.03 846 24.98 -8.2 17.3 81 -11 12.3
20:15 1017 30.03 846 24.98 -8.2 17.3 81 -10.9 12.4
20:20 1017 30.03 846 24.98 -8.2 17.2 82 -10.8 12.5
20:25 1017 30.03 846 24.98 -8.3 17.1 83 -10.7 12.7
20:30 1017 30.03 846 24.98 -8.3 17 83 -10.7 12.8
20:35 1017 30.03 846 24.98 -8.2 17.2 83 -10.6 12.8
20:40 1017 30.03 846 24.98 -8.3 17.1 83 -10.7 12.8
20:45 1017 30.03 846 24.98 -8.3 17 83 -10.7 12.7
20:50 1017 30.03 846 24.98 -8.4 16.8 83 -10.8 12.5
20:55 1017 30.03 846 24.98 -8.4 16.8 83 -10.8 12.5
21:00 1017 30.03 846 24.98 -8.4 16.9 83 -10.8 12.6
21:05 1017 30.03 846 24.98 -8.4 16.9 83 -10.7 12.7
21:10 1017 30.03 846 24.98 -8.4 17 83 -10.7 12.7
21:15 1017 30.03 846 24.98 -8.4 16.9 83 -10.8 12.6
21:20 1017 30.03 846 24.98 -8.4 16.8 83 -10.8 12.6
21:25 1017 30.03 846 24.98 -8.4 16.8 83 -10.8 12.6
21:30 1017 30.03 846 24.98 -8.5 16.8 83 -10.9 12.3
21:35 1017 30.03 846 24.98 -8.5 16.6 83 -11 12.2
21:40 1017 30.03 846 24.98 -8.5 16.6 82 -11.1 12.1
21:45 1017 30.03 846 24.98 -8.5 16.6 82 -11.1 11.9
21:50 1017 30.03 846 24.98 -8.5 16.7 81 -11.2 11.9
21:55 1017 30.03 846 24.98 -8.4 16.8 80 -11.2 11.8
22:00 1017 30.03 846 24.98 -8.4 16.9 81 -11.1 12
22:05 1017 30.03 846 24.98 -8.3 17 80 -11.1 11.9
22:10 1017 30.03 846 24.98 -8.2 17.2 80 -11.2 11.9
22:15 1017 30.03 846 24.98 -8.2 17.3 80 -11.1 12
22:20 1017 30.03 846 24.98 -8.2 17.3 80 -11.1 12.1
22:25 1017 30.03 846 24.98 -8 17.6 81 -10.8 12.6
22:30 1017 30.03 847 25.01 -8 17.6 81 -10.7 12.8
22:35 1017 30.03 847 25.01 -8.1 17.4 83 -10.6 13
22:40 1017 30.03 847 25.01 -8 17.6 83 -10.4 13.3
22:45 1017 30.03 846 24.98 -8 17.5 83 -10.5 13.1
22:50 1017 30.03 847 25.01 -8.1 17.4 83 -10.5 13.1
22:55 1017 30.03 846 24.98 -8.2 17.3 83 -10.5 13
23:00 1017 30.03 846 24.98 -8.2 17.2 84 -10.5 13.1
23:05 1017 30.03 846 24.98 -8.3 17 84 -10.5 13
23:10 1017 30.03 846 24.98 -8.4 16.8 85 -10.5 13.1
23:15 1017 30.03 847 25.01 -8.3 17 84 -10.6 12.9
23:20 1017 30.03 847 25.01 -8.3 17 83 -10.8 12.6
23:25 1017 30.03 846 24.98 -8.7 16.4 85 -10.8 12.5
23:30 1017 30.03 847 25.01 -8.7 16.4 83 -11 12.2
23:35 1017 30.03 847 25.01 -8.8 16.1 83 -11.2 11.9
23:40 1017 30.03 847 25.01 -8.9 16 83 -11.3 11.6
23:45 1017 30.03 847 25.01 -8.9 15.9 83 -11.3 11.6
23:50 1017 30.03 847 25.01 -8.8 16.1 82 -11.3 11.6
23:55 1017 30.03 847 25.01 -8.9 16.1 83 -11.3 11.6
24:00 1018 30.06 847 25.01 -8.8 16.2 83 -11.2 11.8